»·PEaware :: N211WP Kmry-Ksfo

N211WP :: Kmry-Ksfo

FLIGHT INFORMATION

Flight Status: Arrived
Operator: Privately registered:
United States
More flights under this callsign
Pilot: Wayne M. (1794)
Aircraft: Unknown
(DA40)
More flights by this aircraft type
Origin: Kmry Monterey Peninsula
United States
Destination: Ksfo San Francisco Intl
United States
More flights between these airports :: More routes between these airports
Route: +SNS SANTY OSI
File this flight plan on PilotEdge
Remarks:
Altitude:
(Current/Filed)
8,000ft
Speed:
(Current/Filed)
132kts
Departed: 10-Jan-17 11:32 AM
Arrived: 10-Jan-17 12:15 PM
Distance/Time
Traveled:
68nm/0:43
Distance/Time
To Go:
Arrived

Flight Plot

Page will automatically refresh every two minutes.


Map Options




Map Legend


Flown Route
Filed Route
Departure Airport
Arrival Airport
Navaid (VOR, NDB)
Fix

Horizontal Profiles

Position Reports

Time Latitude Longitude Heading Altitude Ground
Speed
10-Jan-17 11:31 36.563399 -121.673674 350 4431ft 163kts
10-Jan-17 11:32 36.586259 -121.675490 357 4396ft 180kts
10-Jan-17 11:33 36.635449 -121.677828 357 4409ft 186kts
10-Jan-17 11:34 36.685651 -121.680197 357 4405ft 186kts
10-Jan-17 11:35 36.733178 -121.697333 312 4376ft 189kts
10-Jan-17 11:36 36.760340 -121.742933 304 5023ft 146kts
10-Jan-17 11:37 36.785639 -121.784347 308 5630ft 153kts
10-Jan-17 11:38 36.813626 -121.826687 309 5887ft 160kts
10-Jan-17 11:39 36.840059 -121.866047 309 5892ft 157kts
10-Jan-17 11:40 36.868529 -121.908291 310 5891ft 165kts
10-Jan-17 11:41 36.898302 -121.952492 310 5891ft 168kts
10-Jan-17 11:42 36.927982 -121.996606 310 5890ft 171kts
10-Jan-17 11:43 36.958448 -122.041952 310 5890ft 171kts
10-Jan-17 11:44 36.994074 -122.079541 336 5892ft 171kts
10-Jan-17 11:45 37.038109 -122.102328 338 5892ft 173kts
10-Jan-17 11:46 37.081863 -122.124425 338 5983ft 171kts
10-Jan-17 11:47 37.125326 -122.146295 338 5982ft 173kts
10-Jan-17 11:48 37.169458 -122.168528 338 5982ft 172kts
10-Jan-17 11:49 37.212267 -122.190133 338 5989ft 174kts
10-Jan-17 11:50 37.251499 -122.209928 338 5982ft 174kts
10-Jan-17 11:51 37.274917 -122.221761 337 6004ft 161kts
10-Jan-17 11:52 37.312000 -122.240534 338 6017ft 159kts
10-Jan-17 11:53 37.351477 -122.261073 338 6013ft 161kts
10-Jan-17 11:54 37.388290 -122.281949 336 6006ft 162kts
10-Jan-17 11:55 37.427353 -122.308673 333 6065ft 147kts
10-Jan-17 11:56 37.460262 -122.330904 333 5963ft 135kts
10-Jan-17 11:57 37.497093 -122.356403 333 5997ft 160kts
10-Jan-17 11:58 37.535368 -122.381442 333 5995ft 163kts
10-Jan-17 11:59 37.574962 -122.405263 333 5882ft 171kts
10-Jan-17 12:00 37.616499 -122.428902 333 5421ft 173kts
10-Jan-17 12:01 37.659009 -122.443484 22 4938ft 167kts
10-Jan-17 12:02 37.702739 -122.425130 23 4448ft 166kts
10-Jan-17 12:03 37.745220 -122.406911 23 4012ft 163kts
10-Jan-17 12:04 37.787007 -122.389034 23 3999ft 163kts
10-Jan-17 12:05 37.808991 -122.357411 113 3979ft 112kts
10-Jan-17 12:06 37.798412 -122.320191 114 4000ft 122kts
10-Jan-17 12:07 37.773613 -122.301306 166 3987ft 101kts
10-Jan-17 12:08 37.749729 -122.294236 166 4015ft 102kts
10-Jan-17 12:09 37.724687 -122.302528 201 3217ft 98kts
10-Jan-17 12:10 37.700788 -122.318736 199 1821ft 98kts
10-Jan-17 12:11 37.679207 -122.332698 200 1212ft 89kts
10-Jan-17 12:12 37.657421 -122.347332 199 699ft 86kts
10-Jan-17 12:13 37.638887 -122.359672 198 309ft 75kts
10-Jan-17 12:14 37.622393 -122.370561 207 9ft 54kts
10-Jan-17 12:15 37.616631 -122.374810 239 14ft 10kts
10-Jan-17 12:16 37.616489 -122.376188 269 19ft 0kts
10-Jan-17 12:17 37.616765 -122.379421 299 26ft 0kts
10-Jan-17 12:18 37.618388 -122.379760 335 27ft 17kts
10-Jan-17 12:19 37.619560 -122.379477 49 27ft 0kts
10-Jan-17 12:20 37.619855 -122.379017 53 26ft 29kts
10-Jan-17 12:21 37.622873 -122.375662 303 17ft 12kts
10-Jan-17 12:22 37.624779 -122.380239 295 21ft 30kts
10-Jan-17 12:23 37.627488 -122.384679 356 13ft 1kts

Navigation Log

Ident Type
Flight plan parsing failed, navigation log unavailable